Latest Weather Observations for Moranbah Airport

IDQ60801

Issued at 2:35 pm EST Monday 21 April 2014 (issued every 30 minutes, with the page automatically refreshed every 10 minutes)

About weather observations | Map of weather stations | Latest weather observations for QLD | Other Formats
Station Details ID: 034035 Name: MORANBAH AIRPORT Lat: -22.06 Lon: 148.08 Height: 232.2 m
Data from the previous 72 hours. | See also: Recent months at Moranbah Airport
Date/Time
EST
Temp
°C
App
Temp
°C
Dew
Point
Rel
Hum
%
Delta-T
°C
Wind Press
QNH
hPa
Press
MSL
hPa
Rain
since 9 am
mm
Dir
 
Spd
km/h
Gust
km/h
Spd
kts
Gust
kts
21/02:30pm 28.9 25.4 12.3 36 9.8 E 22 35 12 19 1016.2 - 0.0
21/02:00pm 28.2 24.3 12.1 37 9.4 E 24 37 13 20 1016.5 - 0.0
21/01:30pm 28.0 24.2 11.1 35 9.7 ESE 22 35 12 19 1016.9 - 0.0
21/01:00pm 28.0 23.2 10.2 33 10.1 E 26 39 14 21 1017.5 - 0.0
21/12:30pm 28.2 24.1 11.3 35 9.8 E 24 35 13 19 1017.9 - 0.0
21/12:00pm 27.6 23.5 11.6 37 9.3 ENE 24 35 13 19 1018.5 1017.4 0.0
21/11:30am 27.2 22.3 11.2 36 9.2 ENE 28 41 15 22 1019.1 - 0.0
21/11:00am 27.1 22.0 12.0 39 8.8 E 30 41 16 22 1019.5 - 0.0
21/10:30am 26.7 21.3 10.8 37 9.1 E 30 41 16 22 1019.9 - 0.0
21/10:00am 25.8 23.3 14.0 48 7.1 ESE 20 32 11 17 1020.0 - 0.0
21/09:30am 24.1 21.9 14.8 56 5.6 E 20 32 11 17 1019.9 - 0.0
21/09:00am 23.1 21.8 14.9 60 4.9 E 15 24 8 13 1019.8 1018.8 0.0
21/08:30am 21.5 20.3 15.1 67 3.8 E 15 17 8 9 1019.5 - 0.0
21/08:00am 19.7 18.5 15.1 75 2.7 ESE 15 17 8 9 1019.3 - 0.0
21/07:30am 18.0 16.4 15.1 83 1.7 SE 17 20 9 11 1019.1 - 0.0
21/07:00am 16.2 15.2 14.7 91 0.9 SSE 13 15 7 8 1018.8 - 0.0
21/06:30am 13.4 12.3 12.1 92 0.7 SSE 9 13 5 7 1018.6 - 0.0
21/06:00am 13.5 12.9 12.4 93 0.6 S 7 9 4 5 1018.1 1017.0 0.0
21/05:30am 13.7 12.4 12.4 92 0.7 SE 11 13 6 7 1017.9 - 0.0
21/05:00am 14.1 12.9 12.7 91 0.8 SE 11 13 6 7 1017.6 - 0.0
21/04:30am 15.1 13.4 13.5 90 0.9 SE 15 17 8 9 1017.5 - 0.0
21/04:00am 15.1 13.3 13.3 89 1.0 SSE 15 17 8 9 1017.3 - 0.0
21/03:30am 15.1 13.6 13.1 88 1.1 SSE 13 15 7 8 1017.3 - 0.0
21/03:00am 16.0 14.8 12.9 82 1.7 SSE 11 13 6 7 1017.5 1016.4 0.0
21/02:30am 16.7 15.1 12.8 78 2.2 SSE 13 15 7 8 1017.5 - 0.0
21/02:00am 17.4 16.0 13.3 77 2.3 E 13 15 7 8 1017.5 - 0.0
21/01:30am 17.2 16.5 13.1 77 2.3 E 9 11 5 6 1017.6 - 0.0
21/01:00am 17.5 16.4 13.2 76 2.4 E 11 13 6 7 1017.9 - 0.0
21/12:30am 18.4 18.1 12.6 69 3.3 ENE 6 7 3 4 1018.0 - 0.0
21/12:00am 17.8 18.0 13.1 74 2.7 ENE 4 6 2 3 1018.1 1017.0 0.0
 
Date/Time
EST
Temp
°C
App
Temp
°C
Dew
Point
Rel
Hum
%
Delta-T
°C
Wind Press
QNH
hPa
Press
MSL
hPa
Rain
since 9 am
mm
Dir
 
Spd
km/h
Gust
km/h
Spd
kts
Gust
kts
20/11:30pm 18.2 18.1 13.9 76 2.5 ENE 7 9 4 5 1018.2 - 0.0
20/11:00pm 17.0 16.5 12.5 75 2.5 ENE 7 9 4 5 1018.4 - 0.0
20/10:30pm 18.4 17.9 13.7 74 2.7 ENE 9 11 5 6 1018.4 - 0.0
20/10:00pm 18.2 19.1 12.9 71 3.0 CALM 0 0 0 0 1018.4 - 0.0
20/09:30pm 20.0 19.8 13.5 66 3.8 ENE 7 9 4 5 1018.4 - 0.0
20/09:00pm 20.5 19.5 13.5 64 4.0 NE 11 15 6 8 1018.3 1017.2 0.0
20/08:30pm 20.9 19.5 13.4 62 4.3 ENE 13 15 7 8 1018.1 - 0.0
20/08:00pm 21.8 20.4 13.4 59 4.9 NE 13 19 7 10 1017.7 - 0.0
20/07:30pm 21.6 19.8 13.2 59 4.9 ENE 15 22 8 12 1017.5 - 0.0
20/07:00pm 22.1 20.5 12.9 56 5.3 ENE 13 15 7 8 1016.9 - 0.0
20/06:30pm 23.3 22.0 12.6 51 6.2 E 11 13 6 7 1016.5 - 0.0
20/06:00pm 24.9 23.2 12.5 46 7.2 ESE 13 15 7 8 1016.2 1015.2 0.0
20/05:30pm 26.6 24.9 12.3 41 8.3 E 13 17 7 9 1015.9 - 0.0
20/05:00pm 27.4 24.9 12.2 39 8.9 E 17 22 9 12 1015.6 - 0.0
20/04:30pm 28.5 26.3 12.0 36 9.7 E 15 26 8 14 1015.4 - 0.0
20/04:00pm 28.5 25.2 11.6 35 9.8 ESE 20 26 11 14 1015.3 - 0.0
20/03:30pm 29.0 26.0 12.4 36 9.8 E 20 30 11 16 1015.3 - 0.0
20/03:00pm 29.2 26.0 13.0 37 9.7 E 22 32 12 17 1015.1 1014.1 0.0
20/02:30pm 28.7 25.6 11.7 35 9.9 E 19 30 10 16 1015.3 - 0.0
20/02:00pm 28.8 26.0 12.7 37 9.5 E 19 32 10 17 1015.4 - 0.0
20/01:30pm 29.4 27.9 13.2 37 9.7 ENE 13 32 7 17 1015.6 - 0.0
20/01:00pm 29.1 26.0 12.1 35 10.0 E 20 32 11 17 1015.9 - 0.0
20/12:30pm 28.6 25.2 12.5 37 9.5 E 22 37 12 20 1016.2 - 0.0
20/12:00pm 28.0 25.7 13.1 39 8.9 E 17 26 9 14 1016.8 1015.8 0.0
20/11:30am 27.6 26.0 13.9 43 8.2 ESE 15 26 8 14 1017.4 - 0.0
20/11:00am 27.1 25.7 14.5 46 7.6 ENE 15 24 8 13 1017.9 - 0.0
20/10:30am 25.9 24.8 15.3 52 6.5 NNE 15 20 8 11 1018.2 - 0.0
20/10:00am 25.5 25.3 15.8 55 6.0 E 11 20 6 11 1018.3 - 0.0
20/09:30am 24.3 25.0 16.0 60 5.1 SE 7 13 4 7 1018.4 - 0.0
20/09:00am 23.7 25.2 17.7 69 3.8 SE 6 9 3 5 1018.2 1017.1 0.0
20/08:30am 22.1 23.7 17.0 73 3.2 NNE 4 7 2 4 1018.0 - 0.0
20/08:00am 20.8 23.4 17.4 81 2.1 CALM 0 0 0 0 1017.7 - 0.0
20/07:30am 18.4 20.6 16.6 89 1.1 CALM 0 0 0 0 1017.5 - 0.0
20/07:00am 16.4 18.2 15.6 95 0.5 CALM 0 0 0 0 1017.2 - 0.0
20/06:30am 14.2 14.8 13.2 94 0.6 S 2 6 1 3 1016.8 - 0.0
20/06:00am 14.3 14.6 13.3 94 0.6 W 4 6 2 3 1016.4 1015.4 0.0
20/05:30am 14.4 14.3 13.3 93 0.6 S 6 6 3 3 1016.0 - 0.0
20/05:00am 14.7 14.7 13.6 93 0.6 SSW 6 7 3 4 1015.8 - 0.0
20/04:30am 14.8 14.9 13.8 94 0.6 SW 6 9 3 5 1015.6 - 0.0
20/04:00am 15.0 16.2 13.9 93 0.6 CALM 0 0 0 0 1015.5 - 0.0
20/03:30am 15.4 16.8 14.3 93 0.6 CALM 0 0 0 0 1015.3 - 0.0
20/03:00am 15.9 17.4 14.6 92 0.8 CALM 0 0 0 0 1015.5 1014.5 0.0
20/02:30am 16.0 16.7 14.5 91 0.9 SW 4 6 2 3 1015.5 - 0.0
20/02:00am 16.3 16.7 14.8 91 0.9 SW 6 6 3 3 1015.6 - 0.0
20/01:30am 16.7 17.1 15.4 92 0.8 SW 7 9 4 5 1015.7 - 0.0
20/01:00am 16.4 17.1 14.6 89 1.0 W 4 7 2 4 1015.9 - 0.0
20/12:30am 17.5 19.3 15.5 88 1.2 CALM 0 0 0 0 1016.1 - 0.0
20/12:00am 17.8 19.6 15.6 87 1.3 CALM 0 0 0 0 1016.2 1015.2 0.0
 
Date/Time
EST
Temp
°C
App
Temp
°C
Dew
Point
Rel
Hum
%
Delta-T
°C
Wind Press
QNH
hPa
Press
MSL
hPa
Rain
since 9 am
mm
Dir
 
Spd
km/h
Gust
km/h
Spd
kts
Gust
kts
19/11:30pm 18.3 20.1 15.6 84 1.6 CALM 0 0 0 0 1016.4 - 0.0
19/11:00pm 18.5 19.6 15.6 83 1.7 W 4 6 2 3 1016.4 - 0.0
19/10:30pm 18.7 18.9 15.8 83 1.7 WSW 9 13 5 7 1016.4 - 0.0
19/10:00pm 19.6 20.2 15.3 76 2.6 NE 6 7 3 4 1016.1 - 0.0
19/09:30pm 20.7 21.1 16.3 76 2.7 NE 9 13 5 7 1016.2 - 0.0
19/09:00pm 20.6 20.3 15.4 72 3.1 NE 11 13 6 7 1016.1 1015.1 0.0
19/08:30pm 21.0 20.2 13.9 64 4.2 ENE 11 13 6 7 1016.0 - 0.0
19/08:00pm 22.2 20.4 13.3 57 5.2 E 15 19 8 10 1015.7 - 0.0
19/07:30pm 21.9 20.5 13.3 58 5.0 E 13 13 7 7 1015.4 - 0.0
19/07:00pm 22.5 21.4 13.0 55 5.5 E 11 13 6 7 1015.1 - 0.0
19/06:30pm 23.0 21.8 12.9 53 5.9 E 11 13 6 7 1014.8 - 0.0
19/06:00pm 25.0 23.9 13.2 48 6.9 E 11 13 6 7 1014.4 1013.3 0.0
19/05:30pm 26.9 25.6 12.5 40 8.4 E 11 13 6 7 1014.2 - 0.0
19/05:00pm 28.5 27.2 12.4 37 9.5 E 11 15 6 8 1014.0 - 0.0
19/04:30pm 29.2 27.9 11.3 33 10.4 E 9 15 5 8 1013.9 - 0.0
19/04:00pm 29.2 27.4 12.2 35 10.0 ESE 13 19 7 10 1013.9 - 0.0
19/03:30pm 29.6 27.9 12.5 35 10.1 E 13 19 7 10 1014.0 - 0.0
19/03:00pm 29.1 28.4 12.1 35 10.0 NNE 7 13 4 7 1014.2 1013.1 0.0
19/02:30pm 27.7 26.0 12.5 39 8.9 ESE 13 19 7 10 1014.5 - 0.0
19/02:00pm 27.8 26.9 12.6 39 9.0 SSW 9 15 5 8 1014.7 - 0.0
19/01:30pm 29.2 27.3 13.0 37 9.7 E 15 28 8 15 1015.0 - 0.0
19/01:00pm 27.8 26.7 13.0 40 8.8 E 11 22 6 12 1015.6 - 0.0
19/12:30pm 27.0 26.6 14.1 45 7.8 ESE 9 19 5 10 1016.0 - 0.0
19/12:00pm 26.9 25.8 14.3 46 7.6 E 13 19 7 10 1016.5 1015.5 0.0
19/11:30am 27.6 27.6 16.2 49 7.1 E 11 17 6 9 1017.2 - 0.0
19/11:00am 27.0 27.7 16.0 51 6.8 N 7 13 4 7 1017.6 - 0.0
19/10:30am 25.9 25.9 16.2 55 6.0 E 11 17 6 9 1018.1 - 0.0
19/10:00am 25.7 26.2 16.5 56 5.7 E 9 13 5 7 1018.2 - 0.0
19/09:30am 24.9 25.9 18.6 68 4.0 SE 11 15 6 8 1018.5 - 0.0
19/09:00am 23.3 24.1 18.2 73 3.2 SSE 11 15 6 8 1018.7 1017.7 0.0
19/08:30am 21.9 22.5 18.5 81 2.2 SE 13 17 7 9 1018.7 - 0.0
19/08:00am 20.6 21.2 18.7 89 1.2 SE 13 17 7 9 1018.5 - 0.0
19/07:30am 19.4 20.2 18.2 93 0.7 SE 11 17 6 9 1018.3 - 0.0
19/07:00am 18.0 18.8 17.4 96 0.4 ESE 9 11 5 6 1018.1 - 0.0
19/06:30am 17.8 18.2 17.3 97 0.3 SE 11 13 6 7 1017.7 - 0.0
19/06:00am 17.3 18.2 16.7 96 0.4 S 7 9 4 5 1017.5 1016.4 0.0
19/05:30am 17.5 18.6 17.0 97 0.3 S 7 9 4 5 1017.2 - 0.0
19/05:00am 16.3 17.0 15.5 95 0.5 SSE 6 9 3 5 1016.7 - 0.0
19/04:30am 16.4 16.9 15.6 95 0.5 SSE 7 9 4 5 1016.2 - 0.0
19/04:00am 16.5 17.2 15.5 94 0.6 SSW 6 7 3 4 1016.3 - 0.0
19/03:30am 16.7 18.5 15.6 93 0.6 CALM 0 0 0 0 1016.3 - 0.0
19/03:00am 17.1 18.0 16.0 93 0.7 S 6 9 3 5 1016.3 1015.3 0.0
19/02:30am 17.8 18.5 17.0 95 0.5 S 9 11 5 6 1016.5 - 0.0
19/02:00am 17.3 18.2 16.0 92 0.8 SW 6 7 3 4 1016.7 - 0.0
19/01:30am 17.8 19.1 16.1 90 1.0 SSE 4 7 2 4 1016.8 - 0.0
19/01:00am 18.3 19.2 16.6 90 1.0 SE 7 9 4 5 1016.9 - 0.0
19/12:30am 18.8 19.5 17.1 90 1.0 SSE 9 11 5 6 1017.1 - 0.0
19/12:00am 18.8 19.1 17.1 90 1.0 SSE 11 13 6 7 1017.2 1016.1 0.0
 
Date/Time
EST
Temp
°C
App
Temp
°C
Dew
Point
Rel
Hum
%
Delta-T
°C
Wind Press
QNH
hPa
Press
MSL
hPa
Rain
since 9 am
mm
Dir
 
Spd
km/h
Gust
km/h
Spd
kts
Gust
kts
18/11:30pm 18.9 21.4 17.2 90 1.0 CALM 0 0 0 0 1017.2 - 0.0
18/11:00pm 18.8 21.1 16.8 88 1.2 CALM 0 0 0 0 1017.1 - 0.0
18/10:30pm 19.3 21.7 17.1 87 1.3 CALM 0 0 0 0 1017.2 - 0.0
18/10:00pm 20.4 23.0 17.4 83 1.9 CALM 0 0 0 0 1017.1 - 0.0
18/09:30pm 21.0 22.1 17.2 79 2.3 SE 7 9 4 5 1016.9 - 0.0
18/09:00pm 21.5 22.2 17.9 80 2.3 SE 11 13 6 7 1016.9 1015.9 0.0
18/08:30pm 22.0 23.1 18.0 78 2.5 E 9 11 5 6 1016.7 - 0.0
18/08:00pm 22.5 22.9 17.2 72 3.3 ENE 11 13 6 7 1016.3 - 0.0
18/07:30pm 22.8 22.7 16.1 66 4.1 ESE 11 13 6 7 1015.7 - 0.0
18/07:00pm 23.4 24.0 16.7 66 4.1 ESE 9 11 5 6 1015.4 - 0.0
18/06:30pm 24.1 24.2 16.4 62 4.8 SE 11 13 6 7 1015.1 - 0.0
18/06:00pm 25.2 26.0 16.3 57 5.5 SE 7 9 4 5 1014.9 1013.9 0.0
18/05:30pm 26.1 26.4 16.1 54 6.2 ESE 9 11 5 6 1014.6 - 0.0
18/05:00pm 28.3 28.3 15.2 44 8.1 ESE 9 13 5 7 1014.3 - 0.0
18/04:30pm 29.2 30.2 15.3 42 8.6 E 4 11 2 6 1014.1 - 0.0
18/04:00pm 28.9 29.1 14.7 42 8.7 SE 7 11 4 6 1013.8 - 0.0
18/03:30pm 29.4 28.4 15.5 43 8.6 SSE 15 20 8 11 1013.7 - 0.0
18/03:00pm 29.5 30.1 16.7 46 8.1 N 9 15 5 8 1013.8 1012.7 0.0

Other Formats:

Comma delimited format used in spreadsheet applications
http://www.bom.gov.au/fwo/IDQ60801/IDQ60801.94397.axf

JavaScript Object Notation format (JSON) in row-major order
http://www.bom.gov.au/fwo/IDQ60801/IDQ60801.94397.json